Estación Meteorológica Peña el Pijo (Robertgarden) [ 11/17/17 23:54:49 CET ]

Fecha Hora Presion(HPa) Temp (°C) Humedad % Rocio (°C) Viento ( m/s) Direccion Lluvia 1Hora(mm) Lluvia 24H(mm) LLuvia Total(mm)
2017-Aug-28 01:01:38 1011.700 15.3 84 12.6       0.51 1451.43
2017-Aug-28 02:01:57 1011.600 15.3 86 13.0       0.51 1451.43
2017-Aug-28 03:01:06 1010.900 19.0 84 16.2       0.51 1451.43
2017-Aug-28 04:01:14 1010.700 19.3 80 15.8       0.51 1451.43
2017-Aug-28 05:01:10 1012.300 19.6 75 15.0       0.51 1451.43
2017-Aug-28 06:01:08 1009.900 18.8 71 13.4       0.51 1451.43
2017-Aug-28 07:01:56 1009.600 16.2 78 12.4       0.51 1451.43
2017-Aug-28 08:01:49 1009.300 15.2 81 12.0       0.51 1451.43
2017-Aug-28 09:01:43 1009.200 16.4 83 13.5       0.51 1451.43
2017-Aug-28 10:01:44 1009.800 18.5 81 15.2       0.51 1451.43
2017-Aug-28 11:01:42 1010.000 20.9 65 14.0       0.51 1451.43
2017-Aug-28 12:01:41 1010.600 22.9 57 13.9       0.51 1451.43
2017-Aug-28 13:01:34 1009.900 23.3 47 11.3       0.51 1451.43
2017-Aug-28 14:01:32 1010.200 23.5 45 10.8       0.51 1451.43
2017-Aug-28 15:01:33 1010.000 23.4 49 12.1         1451.43
2017-Aug-28 16:01:28 1009.600 25.6 50 14.4         1451.43
2017-Aug-28 17:01:33 1009.200 24.8 49 13.4         1451.43
2017-Aug-28 18:01:45 1008.700 24.8 47 12.7         1451.43
2017-Aug-28 19:01:49 1008.700 24.1 47 12.1         1451.43
2017-Aug-28 20:01:53 1008.800 22.4 53 12.3         1451.43
2017-Aug-28 21:01:55 1009.100 21.1 57 12.2         1451.43
2017-Aug-28 22:01:45 1009.200 18.5 63 11.3         1451.43
2017-Aug-28 23:01:58 1009.500 17.9 70 12.4         1451.43

Temperatura Máxima:25°    Temperatura Mínima:15°
Presión Máxima:1012.300 Hpa    Presión Mínima:1008.700 Hpa


Volver